sensor_id;sensor_type;location;lat;lon;timestamp;P1;durP1;ratioP1;P2;durP2;ratioP2
13435;SDS011;6790;49.520;8.504;2023-04-22T00:00:48;11.03;;;6.90;;
13435;SDS011;6790;49.520;8.504;2023-04-22T00:03:14;14.10;;;8.10;;
13435;SDS011;6790;49.520;8.504;2023-04-22T00:05:39;16.97;;;10.57;;
13435;SDS011;6790;49.520;8.504;2023-04-22T00:08:06;17.63;;;12.07;;
13435;SDS011;6790;49.520;8.504;2023-04-22T00:10:32;11.67;;;8.47;;
13435;SDS011;6790;49.520;8.504;2023-04-22T00:12:58;11.47;;;7.83;;
13435;SDS011;6790;49.520;8.504;2023-04-22T00:15:24;10.23;;;7.70;;
13435;SDS011;6790;49.520;8.504;2023-04-22T00:17:51;10.37;;;6.73;;
13435;SDS011;6790;49.520;8.504;2023-04-22T00:20:20;9.33;;;6.30;;
13435;SDS011;6790;49.520;8.504;2023-04-22T00:22:46;8.60;;;5.80;;
13435;SDS011;6790;49.520;8.504;2023-04-22T00:25:12;8.40;;;6.13;;
13435;SDS011;6790;49.520;8.504;2023-04-22T00:27:38;12.07;;;6.10;;
13435;SDS011;6790;49.520;8.504;2023-04-22T00:30:04;9.17;;;6.03;;
13435;SDS011;6790;49.520;8.504;2023-04-22T00:32:30;9.43;;;5.60;;
13435;SDS011;6790;49.520;8.504;2023-04-22T00:34:56;7.80;;;6.03;;
13435;SDS011;6790;49.520;8.504;2023-04-22T00:37:22;8.50;;;5.90;;
13435;SDS011;6790;49.520;8.504;2023-04-22T00:39:49;12.87;;;5.97;;
13435;SDS011;6790;49.520;8.504;2023-04-22T00:42:15;8.40;;;5.77;;
13435;SDS011;6790;49.520;8.504;2023-04-22T00:44:41;7.50;;;5.53;;
13435;SDS011;6790;49.520;8.504;2023-04-22T00:47:10;8.13;;;5.60;;
13435;SDS011;6790;49.520;8.504;2023-04-22T00:49:36;8.43;;;5.77;;
13435;SDS011;6790;49.520;8.504;2023-04-22T00:52:03;11.17;;;6.57;;
13435;SDS011;6790;49.520;8.504;2023-04-22T00:54:28;9.53;;;6.13;;
13435;SDS011;6790;49.520;8.504;2023-04-22T00:56:55;10.97;;;6.20;;
13435;SDS011;6790;49.520;8.504;2023-04-22T00:59:21;7.70;;;6.20;;
13435;SDS011;6790;49.520;8.504;2023-04-22T01:01:48;8.53;;;5.93;;
13435;SDS011;6790;49.520;8.504;2023-04-22T01:04:15;9.57;;;6.23;;
13435;SDS011;6790;49.520;8.504;2023-04-22T01:06:42;9.47;;;6.37;;
13435;SDS011;6790;49.520;8.504;2023-04-22T01:09:08;7.60;;;5.70;;
13435;SDS011;6790;49.520;8.504;2023-04-22T01:11:34;7.60;;;5.60;;
13435;SDS011;6790;49.520;8.504;2023-04-22T01:14:00;10.93;;;5.67;;
13435;SDS011;6790;49.520;8.504;2023-04-22T01:16:28;8.13;;;5.30;;
13435;SDS011;6790;49.520;8.504;2023-04-22T01:18:57;8.33;;;5.13;;
13435;SDS011;6790;49.520;8.504;2023-04-22T01:21:22;11.30;;;6.07;;
13435;SDS011;6790;49.520;8.504;2023-04-22T01:23:48;7.63;;;5.60;;
13435;SDS011;6790;49.520;8.504;2023-04-22T01:26:15;10.13;;;6.20;;
13435;SDS011;6790;49.520;8.504;2023-04-22T01:28:41;10.40;;;6.07;;
13435;SDS011;6790;49.520;8.504;2023-04-22T01:31:06;11.27;;;5.97;;
13435;SDS011;6790;49.520;8.504;2023-04-22T01:33:33;14.43;;;6.40;;
13435;SDS011;6790;49.520;8.504;2023-04-22T01:35:58;9.70;;;5.57;;
13435;SDS011;6790;49.520;8.504;2023-04-22T01:38:24;7.23;;;5.87;;
13435;SDS011;6790;49.520;8.504;2023-04-22T01:40:50;9.63;;;5.70;;
13435;SDS011;6790;49.520;8.504;2023-04-22T01:43:16;8.60;;;6.10;;
13435;SDS011;6790;49.520;8.504;2023-04-22T01:45:42;8.77;;;5.90;;
13435;SDS011;6790;49.520;8.504;2023-04-22T01:48:08;7.70;;;5.37;;
13435;SDS011;6790;49.520;8.504;2023-04-22T01:50:35;7.43;;;5.27;;
13435;SDS011;6790;49.520;8.504;2023-04-22T01:53:01;7.60;;;5.27;;
13435;SDS011;6790;49.520;8.504;2023-04-22T01:55:27;8.67;;;5.83;;
13435;SDS011;6790;49.520;8.504;2023-04-22T01:57:53;7.93;;;5.60;;
13435;SDS011;6790;49.520;8.504;2023-04-22T02:00:19;8.37;;;6.13;;
13435;SDS011;6790;49.520;8.504;2023-04-22T02:02:45;9.30;;;5.50;;
13435;SDS011;6790;49.520;8.504;2023-04-22T02:05:10;7.23;;;5.40;;
13435;SDS011;6790;49.520;8.504;2023-04-22T02:07:36;8.37;;;5.87;;
13435;SDS011;6790;49.520;8.504;2023-04-22T02:10:03;8.70;;;5.93;;
13435;SDS011;6790;49.520;8.504;2023-04-22T02:12:30;11.93;;;6.40;;
13435;SDS011;6790;49.520;8.504;2023-04-22T02:14:56;8.43;;;6.10;;
13435;SDS011;6790;49.520;8.504;2023-04-22T02:17:22;8.57;;;5.97;;
13435;SDS011;6790;49.520;8.504;2023-04-22T02:19:48;10.67;;;6.70;;
13435;SDS011;6790;49.520;8.504;2023-04-22T02:22:14;8.90;;;6.00;;
13435;SDS011;6790;49.520;8.504;2023-04-22T02:24:41;8.97;;;5.40;;
13435;SDS011;6790;49.520;8.504;2023-04-22T02:27:07;7.80;;;5.17;;
13435;SDS011;6790;49.520;8.504;2023-04-22T02:29:33;6.30;;;4.97;;
13435;SDS011;6790;49.520;8.504;2023-04-22T02:31:59;6.73;;;4.97;;
13435;SDS011;6790;49.520;8.504;2023-04-22T02:34:25;8.63;;;5.23;;
13435;SDS011;6790;49.520;8.504;2023-04-22T02:36:51;7.33;;;5.30;;
13435;SDS011;6790;49.520;8.504;2023-04-22T02:39:17;7.93;;;4.83;;
13435;SDS011;6790;49.520;8.504;2023-04-22T02:41:42;9.43;;;5.23;;
13435;SDS011;6790;49.520;8.504;2023-04-22T02:44:08;7.97;;;5.23;;
13435;SDS011;6790;49.520;8.504;2023-04-22T02:46:34;8.57;;;5.97;;
13435;SDS011;6790;49.520;8.504;2023-04-22T02:49:00;8.80;;;5.70;;
13435;SDS011;6790;49.520;8.504;2023-04-22T02:51:25;9.93;;;6.30;;
13435;SDS011;6790;49.520;8.504;2023-04-22T02:53:52;9.60;;;5.70;;
13435;SDS011;6790;49.520;8.504;2023-04-22T02:56:17;8.13;;;5.77;;
13435;SDS011;6790;49.520;8.504;2023-04-22T02:58:44;10.30;;;6.07;;
13435;SDS011;6790;49.520;8.504;2023-04-22T03:01:10;10.33;;;5.50;;
13435;SDS011;6790;49.520;8.504;2023-04-22T03:03:36;8.63;;;5.87;;
13435;SDS011;6790;49.520;8.504;2023-04-22T03:06:01;10.67;;;5.63;;
13435;SDS011;6790;49.520;8.504;2023-04-22T03:08:27;8.40;;;5.70;;
13435;SDS011;6790;49.520;8.504;2023-04-22T03:10:53;7.07;;;5.30;;
13435;SDS011;6790;49.520;8.504;2023-04-22T03:13:18;7.23;;;5.37;;
13435;SDS011;6790;49.520;8.504;2023-04-22T03:15:44;8.03;;;6.00;;
13435;SDS011;6790;49.520;8.504;2023-04-22T03:18:10;7.77;;;5.60;;
13435;SDS011;6790;49.520;8.504;2023-04-22T03:20:37;8.33;;;5.97;;
13435;SDS011;6790;49.520;8.504;2023-04-22T03:23:02;10.47;;;6.30;;
13435;SDS011;6790;49.520;8.504;2023-04-22T03:25:28;9.20;;;6.37;;
13435;SDS011;6790;49.520;8.504;2023-04-22T03:27:54;8.53;;;6.20;;
13435;SDS011;6790;49.520;8.504;2023-04-22T03:30:20;9.83;;;6.60;;
13435;SDS011;6790;49.520;8.504;2023-04-22T03:32:45;8.63;;;5.77;;
13435;SDS011;6790;49.520;8.504;2023-04-22T03:35:11;7.83;;;6.40;;
13435;SDS011;6790;49.520;8.504;2023-04-22T03:37:37;7.40;;;5.70;;
13435;SDS011;6790;49.520;8.504;2023-04-22T03:40:03;7.27;;;5.57;;
13435;SDS011;6790;49.520;8.504;2023-04-22T03:42:29;8.27;;;5.73;;
13435;SDS011;6790;49.520;8.504;2023-04-22T03:44:55;9.97;;;6.00;;
13435;SDS011;6790;49.520;8.504;2023-04-22T03:47:21;6.20;;;5.20;;
13435;SDS011;6790;49.520;8.504;2023-04-22T03:49:47;10.10;;;6.20;;
13435;SDS011;6790;49.520;8.504;2023-04-22T03:52:12;11.50;;;6.50;;
13435;SDS011;6790;49.520;8.504;2023-04-22T03:54:38;8.17;;;5.90;;
13435;SDS011;6790;49.520;8.504;2023-04-22T03:57:03;7.33;;;5.40;;
13435;SDS011;6790;49.520;8.504;2023-04-22T03:59:29;8.40;;;5.37;;
13435;SDS011;6790;49.520;8.504;2023-04-22T04:01:55;8.10;;;5.23;;
13435;SDS011;6790;49.520;8.504;2023-04-22T04:04:21;7.03;;;5.43;;
13435;SDS011;6790;49.520;8.504;2023-04-22T04:06:47;7.20;;;5.20;;
13435;SDS011;6790;49.520;8.504;2023-04-22T04:09:13;6.43;;;4.97;;
13435;SDS011;6790;49.520;8.504;2023-04-22T04:11:39;7.27;;;5.00;;
13435;SDS011;6790;49.520;8.504;2023-04-22T04:14:05;8.43;;;5.80;;
13435;SDS011;6790;49.520;8.504;2023-04-22T04:16:30;8.37;;;5.27;;
13435;SDS011;6790;49.520;8.504;2023-04-22T04:18:56;7.27;;;5.30;;
13435;SDS011;6790;49.520;8.504;2023-04-22T04:21:22;8.23;;;5.10;;
13435;SDS011;6790;49.520;8.504;2023-04-22T04:23:47;8.33;;;6.40;;
13435;SDS011;6790;49.520;8.504;2023-04-22T04:26:13;8.30;;;6.67;;
13435;SDS011;6790;49.520;8.504;2023-04-22T04:28:39;11.57;;;6.47;;
13435;SDS011;6790;49.520;8.504;2023-04-22T04:31:05;9.83;;;6.97;;
13435;SDS011;6790;49.520;8.504;2023-04-22T04:33:31;11.47;;;5.97;;
13435;SDS011;6790;49.520;8.504;2023-04-22T04:35:57;8.10;;;5.93;;
13435;SDS011;6790;49.520;8.504;2023-04-22T04:38:24;9.13;;;5.93;;
13435;SDS011;6790;49.520;8.504;2023-04-22T04:40:50;8.00;;;6.20;;
13435;SDS011;6790;49.520;8.504;2023-04-22T04:43:17;7.27;;;5.77;;
13435;SDS011;6790;49.520;8.504;2023-04-22T04:45:44;10.83;;;7.57;;
13435;SDS011;6790;49.520;8.504;2023-04-22T04:48:12;9.30;;;6.93;;
13435;SDS011;6790;49.520;8.504;2023-04-22T04:50:42;10.00;;;7.20;;
13435;SDS011;6790;49.520;8.504;2023-04-22T04:53:08;9.70;;;7.53;;
13435;SDS011;6790;49.520;8.504;2023-04-22T04:55:34;11.03;;;7.47;;
13435;SDS011;6790;49.520;8.504;2023-04-22T04:58:00;13.83;;;7.43;;
13435;SDS011;6790;49.520;8.504;2023-04-22T05:00:26;12.73;;;7.57;;
13435;SDS011;6790;49.520;8.504;2023-04-22T05:02:52;12.20;;;7.10;;
13435;SDS011;6790;49.520;8.504;2023-04-22T05:05:18;10.07;;;6.57;;
13435;SDS011;6790;49.520;8.504;2023-04-22T05:07:43;13.63;;;7.47;;
13435;SDS011;6790;49.520;8.504;2023-04-22T05:10:09;9.00;;;6.80;;
13435;SDS011;6790;49.520;8.504;2023-04-22T05:12:35;13.40;;;8.23;;
13435;SDS011;6790;49.520;8.504;2023-04-22T05:15:01;10.33;;;7.40;;
13435;SDS011;6790;49.520;8.504;2023-04-22T05:17:27;11.73;;;7.83;;
13435;SDS011;6790;49.520;8.504;2023-04-22T05:19:53;9.30;;;7.13;;
13435;SDS011;6790;49.520;8.504;2023-04-22T05:22:19;14.27;;;8.43;;
13435;SDS011;6790;49.520;8.504;2023-04-22T05:24:45;10.13;;;7.33;;
13435;SDS011;6790;49.520;8.504;2023-04-22T05:27:10;8.60;;;6.90;;
13435;SDS011;6790;49.520;8.504;2023-04-22T05:29:36;11.33;;;7.13;;
13435;SDS011;6790;49.520;8.504;2023-04-22T05:32:02;9.53;;;7.67;;
13435;SDS011;6790;49.520;8.504;2023-04-22T05:34:27;11.07;;;7.53;;
13435;SDS011;6790;49.520;8.504;2023-04-22T05:36:53;10.53;;;6.87;;
13435;SDS011;6790;49.520;8.504;2023-04-22T05:39:19;10.20;;;7.67;;
13435;SDS011;6790;49.520;8.504;2023-04-22T05:41:44;9.53;;;6.93;;
13435;SDS011;6790;49.520;8.504;2023-04-22T05:44:10;9.07;;;6.20;;
13435;SDS011;6790;49.520;8.504;2023-04-22T05:46:36;9.77;;;5.73;;
13435;SDS011;6790;49.520;8.504;2023-04-22T05:49:02;9.00;;;5.83;;
13435;SDS011;6790;49.520;8.504;2023-04-22T05:51:27;8.90;;;5.40;;
13435;SDS011;6790;49.520;8.504;2023-04-22T05:53:53;7.60;;;5.70;;
13435;SDS011;6790;49.520;8.504;2023-04-22T05:56:22;9.63;;;5.33;;
13435;SDS011;6790;49.520;8.504;2023-04-22T05:58:48;7.23;;;5.10;;
13435;SDS011;6790;49.520;8.504;2023-04-22T06:01:13;8.40;;;5.77;;
13435;SDS011;6790;49.520;8.504;2023-04-22T06:03:39;7.43;;;5.10;;
13435;SDS011;6790;49.520;8.504;2023-04-22T06:06:05;7.63;;;5.40;;
13435;SDS011;6790;49.520;8.504;2023-04-22T06:08:31;7.80;;;5.27;;
13435;SDS011;6790;49.520;8.504;2023-04-22T06:10:56;6.83;;;5.50;;
13435;SDS011;6790;49.520;8.504;2023-04-22T06:13:22;8.50;;;5.47;;
13435;SDS011;6790;49.520;8.504;2023-04-22T06:15:48;7.27;;;5.13;;
13435;SDS011;6790;49.520;8.504;2023-04-22T06:18:13;7.40;;;4.73;;
13435;SDS011;6790;49.520;8.504;2023-04-22T06:20:39;6.47;;;5.30;;
13435;SDS011;6790;49.520;8.504;2023-04-22T06:23:05;7.40;;;5.90;;
13435;SDS011;6790;49.520;8.504;2023-04-22T06:25:31;6.80;;;5.70;;
13435;SDS011;6790;49.520;8.504;2023-04-22T06:27:59;11.17;;;5.80;;
13435;SDS011;6790;49.520;8.504;2023-04-22T06:30:25;7.60;;;5.90;;
13435;SDS011;6790;49.520;8.504;2023-04-22T06:32:51;7.17;;;5.07;;
13435;SDS011;6790;49.520;8.504;2023-04-22T06:35:19;5.93;;;5.00;;
13435;SDS011;6790;49.520;8.504;2023-04-22T06:37:45;4.97;;;4.30;;
13435;SDS011;6790;49.520;8.504;2023-04-22T06:40:12;5.10;;;4.07;;
13435;SDS011;6790;49.520;8.504;2023-04-22T06:42:38;4.50;;;3.80;;
13435;SDS011;6790;49.520;8.504;2023-04-22T06:45:04;5.07;;;4.03;;
13435;SDS011;6790;49.520;8.504;2023-04-22T06:47:32;4.53;;;3.70;;
13435;SDS011;6790;49.520;8.504;2023-04-22T06:49:58;4.53;;;3.70;;
13435;SDS011;6790;49.520;8.504;2023-04-22T06:52:24;6.93;;;4.30;;
13435;SDS011;6790;49.520;8.504;2023-04-22T06:54:49;5.20;;;4.07;;
13435;SDS011;6790;49.520;8.504;2023-04-22T06:57:15;5.87;;;4.40;;
13435;SDS011;6790;49.520;8.504;2023-04-22T06:59:41;4.40;;;3.80;;
13435;SDS011;6790;49.520;8.504;2023-04-22T07:02:06;5.97;;;4.50;;
13435;SDS011;6790;49.520;8.504;2023-04-22T07:04:32;5.40;;;4.33;;
13435;SDS011;6790;49.520;8.504;2023-04-22T07:06:58;4.87;;;3.90;;
13435;SDS011;6790;49.520;8.504;2023-04-22T07:09:23;4.47;;;3.70;;
13435;SDS011;6790;49.520;8.504;2023-04-22T07:11:49;5.30;;;3.97;;
13435;SDS011;6790;49.520;8.504;2023-04-22T07:14:15;5.43;;;3.60;;
13435;SDS011;6790;49.520;8.504;2023-04-22T07:16:40;5.67;;;4.00;;
13435;SDS011;6790;49.520;8.504;2023-04-22T07:19:06;6.77;;;4.10;;
13435;SDS011;6790;49.520;8.504;2023-04-22T07:21:32;5.30;;;4.13;;
13435;SDS011;6790;49.520;8.504;2023-04-22T07:23:57;6.00;;;4.07;;
13435;SDS011;6790;49.520;8.504;2023-04-22T07:26:23;5.33;;;4.00;;
13435;SDS011;6790;49.520;8.504;2023-04-22T07:28:49;4.90;;;4.00;;
13435;SDS011;6790;49.520;8.504;2023-04-22T07:31:15;6.90;;;3.93;;
13435;SDS011;6790;49.520;8.504;2023-04-22T07:33:41;4.30;;;3.90;;
13435;SDS011;6790;49.520;8.504;2023-04-22T07:36:06;5.20;;;3.90;;
13435;SDS011;6790;49.520;8.504;2023-04-22T07:38:32;4.87;;;4.27;;
13435;SDS011;6790;49.520;8.504;2023-04-22T07:40:58;6.67;;;3.67;;
13435;SDS011;6790;49.520;8.504;2023-04-22T07:43:24;6.10;;;4.20;;
13435;SDS011;6790;49.520;8.504;2023-04-22T07:45:49;5.97;;;4.10;;
13435;SDS011;6790;49.520;8.504;2023-04-22T07:48:15;5.57;;;4.30;;
13435;SDS011;6790;49.520;8.504;2023-04-22T07:50:41;5.43;;;4.13;;
13435;SDS011;6790;49.520;8.504;2023-04-22T07:53:06;6.00;;;4.03;;
13435;SDS011;6790;49.520;8.504;2023-04-22T07:55:34;4.67;;;3.50;;
13435;SDS011;6790;49.520;8.504;2023-04-22T07:58:00;5.13;;;4.23;;
13435;SDS011;6790;49.520;8.504;2023-04-22T08:00:31;4.30;;;3.87;;
13435;SDS011;6790;49.520;8.504;2023-04-22T08:02:58;4.40;;;3.60;;
13435;SDS011;6790;49.520;8.504;2023-04-22T08:05:23;4.40;;;3.90;;
13435;SDS011;6790;49.520;8.504;2023-04-22T08:07:49;3.87;;;3.53;;
13435;SDS011;6790;49.520;8.504;2023-04-22T08:10:15;3.83;;;3.20;;
13435;SDS011;6790;49.520;8.504;2023-04-22T08:12:43;3.53;;;3.23;;
13435;SDS011;6790;49.520;8.504;2023-04-22T08:15:09;3.50;;;3.17;;
13435;SDS011;6790;49.520;8.504;2023-04-22T08:17:36;3.87;;;3.33;;
13435;SDS011;6790;49.520;8.504;2023-04-22T08:20:02;4.27;;;3.47;;
13435;SDS011;6790;49.520;8.504;2023-04-22T08:22:29;4.17;;;3.07;;
13435;SDS011;6790;49.520;8.504;2023-04-22T08:24:56;6.00;;;3.50;;
13435;SDS011;6790;49.520;8.504;2023-04-22T08:27:22;3.60;;;2.93;;
13435;SDS011;6790;49.520;8.504;2023-04-22T08:29:48;4.35;;;2.88;;
13435;SDS011;6790;49.520;8.504;2023-04-22T08:32:14;3.45;;;3.15;;
13435;SDS011;6790;49.520;8.504;2023-04-22T08:34:40;3.10;;;2.80;;
13435;SDS011;6790;49.520;8.504;2023-04-22T08:37:06;4.82;;;3.38;;
13435;SDS011;6790;49.520;8.504;2023-04-22T08:39:32;3.72;;;3.30;;
13435;SDS011;6790;49.520;8.504;2023-04-22T08:41:58;2.72;;;2.53;;
13435;SDS011;6790;49.520;8.504;2023-04-22T08:44:23;4.83;;;3.00;;
13435;SDS011;6790;49.520;8.504;2023-04-22T08:46:50;2.92;;;2.60;;
13435;SDS011;6790;49.520;8.504;2023-04-22T08:49:16;2.50;;;2.30;;
13435;SDS011;6790;49.520;8.504;2023-04-22T08:51:43;3.08;;;2.70;;
13435;SDS011;6790;49.520;8.504;2023-04-22T08:54:10;3.70;;;2.60;;
13435;SDS011;6790;49.520;8.504;2023-04-22T08:56:40;3.15;;;2.85;;
13435;SDS011;6790;49.520;8.504;2023-04-22T08:59:11;2.97;;;2.60;;
13435;SDS011;6790;49.520;8.504;2023-04-22T09:01:38;3.10;;;2.80;;
13435;SDS011;6790;49.520;8.504;2023-04-22T09:04:05;3.67;;;3.00;;
13435;SDS011;6790;49.520;8.504;2023-04-22T09:06:33;3.90;;;3.20;;
13435;SDS011;6790;49.520;8.504;2023-04-22T09:08:59;4.38;;;2.70;;
13435;SDS011;6790;49.520;8.504;2023-04-22T09:11:26;4.13;;;2.95;;
13435;SDS011;6790;49.520;8.504;2023-04-22T09:13:53;3.95;;;3.45;;
13435;SDS011;6790;49.520;8.504;2023-04-22T09:16:19;3.25;;;2.70;;
13435;SDS011;6790;49.520;8.504;2023-04-22T09:18:44;3.53;;;2.70;;
13435;SDS011;6790;49.520;8.504;2023-04-22T09:21:10;3.80;;;2.88;;
13435;SDS011;6790;49.520;8.504;2023-04-22T09:24:10;4.22;;;3.33;;
13435;SDS011;6790;49.520;8.504;2023-04-22T09:26:31;3.88;;;3.40;;
13435;SDS011;6790;49.520;8.504;2023-04-22T09:28:58;3.88;;;3.20;;
13435;SDS011;6790;49.520;8.504;2023-04-22T09:31:26;3.10;;;2.80;;
13435;SDS011;6790;49.520;8.504;2023-04-22T09:33:58;3.20;;;2.90;;
13435;SDS011;6790;49.520;8.504;2023-04-22T09:36:28;6.25;;;3.35;;
13435;SDS011;6790;49.520;8.504;2023-04-22T09:39:02;3.95;;;3.55;;
13435;SDS011;6790;49.520;8.504;2023-04-22T09:41:32;4.43;;;3.45;;
13435;SDS011;6790;49.520;8.504;2023-04-22T09:44:10;3.63;;;3.25;;
13435;SDS011;6790;49.520;8.504;2023-04-22T09:46:42;3.78;;;3.38;;
13435;SDS011;6790;49.520;8.504;2023-04-22T09:49:08;3.97;;;3.30;;
13435;SDS011;6790;49.520;8.504;2023-04-22T09:51:34;4.05;;;3.42;;
13435;SDS011;6790;49.520;8.504;2023-04-22T09:54:05;4.03;;;3.17;;
13435;SDS011;6790;49.520;8.504;2023-04-22T09:56:51;4.10;;;2.80;;
13435;SDS011;6790;49.520;8.504;2023-04-22T09:59:21;6.10;;;3.10;;
13435;SDS011;6790;49.520;8.504;2023-04-22T10:01:53;4.03;;;3.05;;
13435;SDS011;6790;49.520;8.504;2023-04-22T10:04:24;3.55;;;3.00;;
13435;SDS011;6790;49.520;8.504;2023-04-22T10:06:51;3.75;;;3.10;;
13435;SDS011;6790;49.520;8.504;2023-04-22T10:09:18;4.22;;;3.55;;
13435;SDS011;6790;49.520;8.504;2023-04-22T10:11:48;4.55;;;3.20;;
13435;SDS011;6790;49.520;8.504;2023-04-22T10:14:16;3.63;;;3.28;;
13435;SDS011;6790;49.520;8.504;2023-04-22T10:16:42;3.55;;;3.20;;
13435;SDS011;6790;49.520;8.504;2023-04-22T10:19:13;6.22;;;5.00;;
13435;SDS011;6790;49.520;8.504;2023-04-22T10:21:44;5.15;;;3.35;;
13435;SDS011;6790;49.520;8.504;2023-04-22T10:24:15;3.03;;;2.72;;
13435;SDS011;6790;49.520;8.504;2023-04-22T10:26:57;5.47;;;2.80;;
13435;SDS011;6790;49.520;8.504;2023-04-22T10:29:27;2.88;;;2.60;;
13435;SDS011;6790;49.520;8.504;2023-04-22T10:35:01;3.17;;;2.90;;
13435;SDS011;6790;49.520;8.504;2023-04-22T10:37:33;7.78;;;5.85;;
13435;SDS011;6790;49.520;8.504;2023-04-22T10:40:07;3.75;;;3.35;;
13435;SDS011;6790;49.520;8.504;2023-04-22T10:42:40;3.20;;;2.90;;
13435;SDS011;6790;49.520;8.504;2023-04-22T10:45:16;3.40;;;2.47;;
13435;SDS011;6790;49.520;8.504;2023-04-22T10:47:48;4.05;;;2.45;;
13435;SDS011;6790;49.520;8.504;2023-04-22T10:52:54;3.40;;;2.92;;
13435;SDS011;6790;49.520;8.504;2023-04-22T10:55:23;3.08;;;2.78;;
13435;SDS011;6790;49.520;8.504;2023-04-22T10:57:50;2.97;;;2.50;;
13435;SDS011;6790;49.520;8.504;2023-04-22T11:00:18;3.00;;;2.47;;
13435;SDS011;6790;49.520;8.504;2023-04-22T11:05:34;2.50;;;2.30;;
13435;SDS011;6790;49.520;8.504;2023-04-22T11:08:11;3.92;;;2.40;;
13435;SDS011;6790;49.520;8.504;2023-04-22T11:10:48;9.40;;;6.70;;
13435;SDS011;6790;49.520;8.504;2023-04-22T11:13:16;4.63;;;3.00;;
13435;SDS011;6790;49.520;8.504;2023-04-22T11:15:45;4.90;;;2.97;;
13435;SDS011;6790;49.520;8.504;2023-04-22T11:18:18;3.78;;;2.65;;
13435;SDS011;6790;49.520;8.504;2023-04-22T11:20:49;2.50;;;2.13;;
13435;SDS011;6790;49.520;8.504;2023-04-22T11:23:26;2.28;;;2.08;;
13435;SDS011;6790;49.520;8.504;2023-04-22T11:26:03;2.30;;;2.10;;
13435;SDS011;6790;49.520;8.504;2023-04-22T11:28:30;4.10;;;2.50;;
13435;SDS011;6790;49.520;8.504;2023-04-22T11:31:00;4.20;;;2.33;;
13435;SDS011;6790;49.520;8.504;2023-04-22T11:33:31;5.38;;;2.33;;
13435;SDS011;6790;49.520;8.504;2023-04-22T11:35:58;2.78;;;2.30;;
13435;SDS011;6790;49.520;8.504;2023-04-22T11:38:24;2.85;;;2.45;;
13435;SDS011;6790;49.520;8.504;2023-04-22T11:40:50;3.05;;;2.45;;
13435;SDS011;6790;49.520;8.504;2023-04-22T11:43:19;4.25;;;2.47;;
13435;SDS011;6790;49.520;8.504;2023-04-22T11:45:44;4.15;;;2.17;;
13435;SDS011;6790;49.520;8.504;2023-04-22T11:48:10;3.88;;;2.60;;
13435;SDS011;6790;49.520;8.504;2023-04-22T11:50:37;2.85;;;2.30;;
13435;SDS011;6790;49.520;8.504;2023-04-22T11:53:15;2.67;;;2.25;;
13435;SDS011;6790;49.520;8.504;2023-04-22T11:55:44;2.80;;;2.50;;
13435;SDS011;6790;49.520;8.504;2023-04-22T12:00:52;2.30;;;2.10;;
13435;SDS011;6790;49.520;8.504;2023-04-22T12:03:23;3.00;;;2.08;;
13435;SDS011;6790;49.520;8.504;2023-04-22T12:06:00;2.70;;;2.08;;
13435;SDS011;6790;49.520;8.504;2023-04-22T12:08:35;3.42;;;2.20;;
13435;SDS011;6790;49.520;8.504;2023-04-22T12:11:06;2.92;;;1.90;;
13435;SDS011;6790;49.520;8.504;2023-04-22T12:16:08;2.75;;;1.85;;
13435;SDS011;6790;49.520;8.504;2023-04-22T12:18:37;2.38;;;1.95;;
13435;SDS011;6790;49.520;8.504;2023-04-22T12:21:08;3.63;;;2.28;;
13435;SDS011;6790;49.520;8.504;2023-04-22T12:26:10;2.15;;;1.95;;
13435;SDS011;6790;49.520;8.504;2023-04-22T12:28:37;4.20;;;2.03;;
13435;SDS011;6790;49.520;8.504;2023-04-22T12:31:04;2.30;;;1.83;;
13435;SDS011;6790;49.520;8.504;2023-04-22T12:33:30;3.58;;;2.20;;
13435;SDS011;6790;49.520;8.504;2023-04-22T12:35:57;2.55;;;1.88;;
13435;SDS011;6790;49.520;8.504;2023-04-22T12:38:23;2.45;;;2.00;;
13435;SDS011;6790;49.520;8.504;2023-04-22T12:40:48;2.67;;;2.10;;
13435;SDS011;6790;49.520;8.504;2023-04-22T12:43:15;9.98;;;5.38;;
13435;SDS011;6790;49.520;8.504;2023-04-22T12:45:41;2.30;;;2.10;;
13435;SDS011;6790;49.520;8.504;2023-04-22T12:48:07;2.97;;;2.30;;
13435;SDS011;6790;49.520;8.504;2023-04-22T12:50:36;2.55;;;2.15;;
13435;SDS011;6790;49.520;8.504;2023-04-22T12:53:21;3.70;;;2.20;;
13435;SDS011;6790;49.520;8.504;2023-04-22T12:55:56;2.10;;;1.90;;
13435;SDS011;6790;49.520;8.504;2023-04-22T12:58:25;3.33;;;2.20;;
13435;SDS011;6790;49.520;8.504;2023-04-22T13:00:51;3.53;;;2.50;;
13435;SDS011;6790;49.520;8.504;2023-04-22T13:03:22;7.53;;;5.57;;
13435;SDS011;6790;49.520;8.504;2023-04-22T13:06:02;5.80;;;3.47;;
13435;SDS011;6790;49.520;8.504;2023-04-22T13:08:34;4.40;;;2.20;;
13435;SDS011;6790;49.520;8.504;2023-04-22T13:10:59;2.58;;;2.17;;
13435;SDS011;6790;49.520;8.504;2023-04-22T13:13:25;4.95;;;2.25;;
13435;SDS011;6790;49.520;8.504;2023-04-22T13:15:51;2.75;;;2.30;;
13435;SDS011;6790;49.520;8.504;2023-04-22T13:18:17;2.42;;;2.22;;
13435;SDS011;6790;49.520;8.504;2023-04-22T13:20:43;3.22;;;2.30;;
13435;SDS011;6790;49.520;8.504;2023-04-22T13:23:09;2.80;;;2.20;;
13435;SDS011;6790;49.520;8.504;2023-04-22T13:25:35;2.63;;;2.20;;
13435;SDS011;6790;49.520;8.504;2023-04-22T13:28:01;4.43;;;2.22;;
13435;SDS011;6790;49.520;8.504;2023-04-22T13:30:26;3.03;;;2.30;;
13435;SDS011;6790;49.520;8.504;2023-04-22T13:32:52;3.88;;;2.60;;
13435;SDS011;6790;49.520;8.504;2023-04-22T13:35:18;5.05;;;2.20;;
13435;SDS011;6790;49.520;8.504;2023-04-22T13:37:43;2.90;;;2.38;;
13435;SDS011;6790;49.520;8.504;2023-04-22T13:40:10;10.57;;;8.80;;
13435;SDS011;6790;49.520;8.504;2023-04-22T13:42:36;4.57;;;2.90;;
13435;SDS011;6790;49.520;8.504;2023-04-22T13:45:02;4.07;;;2.33;;
13435;SDS011;6790;49.520;8.504;2023-04-22T13:47:28;3.30;;;2.22;;
13435;SDS011;6790;49.520;8.504;2023-04-22T13:50:11;3.30;;;2.45;;
13435;SDS011;6790;49.520;8.504;2023-04-22T13:52:40;4.05;;;2.30;;
13435;SDS011;6790;49.520;8.504;2023-04-22T13:55:06;5.75;;;4.45;;
13435;SDS011;6790;49.520;8.504;2023-04-22T13:57:33;4.07;;;2.50;;
13435;SDS011;6790;49.520;8.504;2023-04-22T13:59:58;3.75;;;2.47;;
13435;SDS011;6790;49.520;8.504;2023-04-22T14:02:24;4.22;;;2.92;;
13435;SDS011;6790;49.520;8.504;2023-04-22T14:04:50;2.42;;;1.85;;
13435;SDS011;6790;49.520;8.504;2023-04-22T14:07:16;2.70;;;2.10;;
13435;SDS011;6790;49.520;8.504;2023-04-22T14:09:41;1.80;;;1.70;;
13435;SDS011;6790;49.520;8.504;2023-04-22T14:12:07;2.85;;;1.75;;
13435;SDS011;6790;49.520;8.504;2023-04-22T14:14:35;2.72;;;1.58;;
13435;SDS011;6790;49.520;8.504;2023-04-22T14:17:00;2.72;;;1.80;;
13435;SDS011;6790;49.520;8.504;2023-04-22T14:19:27;2.75;;;1.85;;
13435;SDS011;6790;49.520;8.504;2023-04-22T14:21:54;4.18;;;1.80;;
13435;SDS011;6790;49.520;8.504;2023-04-22T14:24:20;2.03;;;1.77;;
13435;SDS011;6790;49.520;8.504;2023-04-22T14:26:48;3.83;;;1.80;;
13435;SDS011;6790;49.520;8.504;2023-04-22T14:29:17;2.55;;;1.67;;
13435;SDS011;6790;49.520;8.504;2023-04-22T14:31:43;3.70;;;1.95;;
13435;SDS011;6790;49.520;8.504;2023-04-22T14:34:08;3.35;;;1.80;;
13435;SDS011;6790;49.520;8.504;2023-04-22T14:36:34;2.63;;;2.15;;
13435;SDS011;6790;49.520;8.504;2023-04-22T14:39:00;9.52;;;7.25;;
13435;SDS011;6790;49.520;8.504;2023-04-22T14:41:26;12.90;;;7.72;;
13435;SDS011;6790;49.520;8.504;2023-04-22T14:43:52;3.72;;;2.30;;
13435;SDS011;6790;49.520;8.504;2023-04-22T14:46:17;3.50;;;2.17;;
13435;SDS011;6790;49.520;8.504;2023-04-22T14:48:43;2.28;;;1.88;;
13435;SDS011;6790;49.520;8.504;2023-04-22T14:51:09;2.15;;;1.75;;
13435;SDS011;6790;49.520;8.504;2023-04-22T14:53:35;2.75;;;2.20;;
13435;SDS011;6790;49.520;8.504;2023-04-22T14:56:01;6.75;;;2.05;;
13435;SDS011;6790;49.520;8.504;2023-04-22T14:58:27;2.55;;;1.80;;
13435;SDS011;6790;49.520;8.504;2023-04-22T15:00:55;2.58;;;2.20;;
13435;SDS011;6790;49.520;8.504;2023-04-22T15:03:23;2.80;;;1.83;;
13435;SDS011;6790;49.520;8.504;2023-04-22T15:05:48;3.65;;;1.92;;
13435;SDS011;6790;49.520;8.504;2023-04-22T15:08:16;4.10;;;1.98;;
13435;SDS011;6790;49.520;8.504;2023-04-22T15:10:42;3.80;;;2.25;;
13435;SDS011;6790;49.520;8.504;2023-04-22T15:13:08;2.08;;;1.70;;
13435;SDS011;6790;49.520;8.504;2023-04-22T15:15:33;2.63;;;2.03;;